createdAt,value
2019-01-13T00:00:23.233Z,91.40
2019-01-13T00:02:51.607Z,91.40
2019-01-13T00:05:20.166Z,91.10
2019-01-13T00:07:48.543Z,91.40
2019-01-13T00:10:16.958Z,91.60
2019-01-13T00:12:45.472Z,91.70
2019-01-13T00:15:13.857Z,91.50
2019-01-13T00:17:42.325Z,91.60
2019-01-13T00:20:12.011Z,91.70
2019-01-13T00:22:40.758Z,91.90
2019-01-13T00:25:09.175Z,91.80
2019-01-13T00:27:37.579Z,91.70
2019-01-13T00:30:19.022Z,91.80
2019-01-13T00:32:44.511Z,91.70
2019-01-13T00:35:12.949Z,91.60
2019-01-13T00:37:41.347Z,91.80
2019-01-13T00:40:12.743Z,92.10
2019-01-13T00:42:41.235Z,92.40
2019-01-13T00:45:11.139Z,92.40
2019-01-13T00:47:39.581Z,92.40
2019-01-13T00:50:11.271Z,92.30
2019-01-13T00:52:39.667Z,92.30
2019-01-13T00:55:09.959Z,92.30
2019-01-13T00:57:38.353Z,92.20
2019-01-13T01:00:13.263Z,92.20
2019-01-13T01:02:41.741Z,92.20
2019-01-13T01:05:10.577Z,92.00
2019-01-13T01:07:38.995Z,92.30
2019-01-13T01:10:10.747Z,92.50
2019-01-13T01:12:39.113Z,92.20
2019-01-13T01:15:10.325Z,91.90
2019-01-13T01:17:38.755Z,91.90
2019-01-13T01:20:10.487Z,92.00
2019-01-13T01:22:38.937Z,91.80
2019-01-13T01:25:08.567Z,91.60
2019-01-13T01:27:37.031Z,91.40
2019-01-13T01:30:11.401Z,91.30
2019-01-13T01:32:39.797Z,91.30
2019-01-13T01:35:08.187Z,91.00
2019-01-13T01:37:36.549Z,91.00
2019-01-13T01:40:11.139Z,91.00
2019-01-13T01:42:39.506Z,91.10
2019-01-13T01:45:10.475Z,90.40
2019-01-13T01:47:38.845Z,90.40
2019-01-13T01:50:09.866Z,90.40
2019-01-13T01:52:38.273Z,90.30
2019-01-13T01:55:09.215Z,90.20
2019-01-13T01:57:37.623Z,90.10
2019-01-13T02:00:14.366Z,90.10
2019-01-13T02:02:42.810Z,90.00
2019-01-13T02:05:11.295Z,90.00
2019-01-13T02:07:39.773Z,89.90
2019-01-13T02:10:11.305Z,90.10
2019-01-13T02:12:41.328Z,90.20
2019-01-13T02:15:15.771Z,90.50
2019-01-13T02:17:44.247Z,90.50
2019-01-13T02:20:15.364Z,90.40
2019-01-13T02:22:43.759Z,90.70
2019-01-13T02:25:14.493Z,90.80
2019-01-13T02:27:42.897Z,90.70
2019-01-13T02:30:17.479Z,90.60
2019-01-13T02:32:45.902Z,90.50
2019-01-13T02:35:14.376Z,90.40
2019-01-13T02:37:42.780Z,90.70
2019-01-13T02:40:13.528Z,90.60
2019-01-13T02:42:41.989Z,90.60
2019-01-13T02:45:13.630Z,90.60
2019-01-13T02:47:42.029Z,90.90
2019-01-13T02:50:12.165Z,90.90
2019-01-13T02:52:40.625Z,91.10
2019-01-13T02:55:09.339Z,91.00
2019-01-13T02:57:37.793Z,91.10
2019-01-13T03:00:12.006Z,91.00
2019-01-13T03:02:40.468Z,91.10
2019-01-13T03:05:10.786Z,91.00
2019-01-13T03:07:39.161Z,91.00
2019-01-13T03:10:10.821Z,91.10
2019-01-13T03:12:39.188Z,91.00
2019-01-13T03:15:09.286Z,91.10
2019-01-13T03:17:37.741Z,91.00
2019-01-13T03:20:09.483Z,90.60
2019-01-13T03:22:37.837Z,90.60
2019-01-13T03:25:12.403Z,90.80
2019-01-13T03:27:40.749Z,90.70
2019-01-13T03:30:14.808Z,90.60
2019-01-13T03:32:43.241Z,90.50
2019-01-13T03:35:11.634Z,90.50
2019-01-13T03:37:40.049Z,90.30
2019-01-13T03:40:11.690Z,90.10
2019-01-13T03:42:40.082Z,90.00
2019-01-13T03:45:10.063Z,90.00
2019-01-13T03:47:38.496Z,89.80
2019-01-13T03:50:12.905Z,89.70
2019-01-13T03:52:41.313Z,89.60
2019-01-13T03:55:10.666Z,89.30
2019-01-13T03:57:39.491Z,89.40
2019-01-13T04:00:11.477Z,88.80
2019-01-13T04:02:39.869Z,88.80
2019-01-13T04:05:08.639Z,88.20
2019-01-13T04:07:37.308Z,88.70
2019-01-13T04:10:08.876Z,89.00
2019-01-13T04:12:37.321Z,88.40
2019-01-13T04:15:09.076Z,88.30
2019-01-13T04:17:37.700Z,88.70
2019-01-13T04:20:06.923Z,88.30
2019-01-13T04:22:37.095Z,88.10
2019-01-13T04:25:05.975Z,88.00
2019-01-13T04:27:34.408Z,87.40
2019-01-13T04:30:02.924Z,86.80
2019-01-13T04:32:31.334Z,87.30
2019-01-13T04:35:00.192Z,87.70
2019-01-13T04:37:28.881Z,87.50
2019-01-13T04:39:57.548Z,87.30
2019-01-13T04:42:25.949Z,87.30
2019-01-13T04:44:54.486Z,86.90
2019-01-13T04:47:28.399Z,86.90
2019-01-13T04:49:57.075Z,86.80
2019-01-13T04:52:36.342Z,86.60
2019-01-13T04:55:07.012Z,87.20
2019-01-13T04:57:44.427Z,86.60
2019-01-13T05:00:18.392Z,85.90
2019-01-13T05:02:46.786Z,86.40
2019-01-13T05:05:15.245Z,86.20
2019-01-13T05:07:43.801Z,86.00
2019-01-13T05:10:20.016Z,85.30
2019-01-13T05:12:48.509Z,85.10
2019-01-13T05:15:17.288Z,85.00
2019-01-13T05:17:45.823Z,85.30
2019-01-13T05:20:16.051Z,85.40
2019-01-13T05:22:44.450Z,85.40
2019-01-13T05:25:12.847Z,85.80
2019-01-13T05:27:41.350Z,86.00
2019-01-13T05:30:20.402Z,86.20
2019-01-13T05:32:49.314Z,86.30
2019-01-13T05:35:17.651Z,86.30
2019-01-13T05:37:46.013Z,86.40
2019-01-13T05:40:16.467Z,86.90
2019-01-13T05:42:44.837Z,86.90
2019-01-13T05:45:15.753Z,87.20
2019-01-13T05:47:44.169Z,87.00
2019-01-13T05:50:14.273Z,87.20
2019-01-13T05:52:43.659Z,87.20
2019-01-13T05:55:12.072Z,86.90
2019-01-13T05:57:40.564Z,86.80
2019-01-13T06:00:12.601Z,86.80
2019-01-13T06:02:41.011Z,86.60
2019-01-13T06:05:09.436Z,86.70
2019-01-13T06:07:38.241Z,86.90
2019-01-13T06:10:09.999Z,86.60
2019-01-13T06:12:39.292Z,86.60
2019-01-13T06:15:13.145Z,86.60
2019-01-13T06:17:41.078Z,86.60
2019-01-13T06:20:12.719Z,86.80
2019-01-13T06:22:41.145Z,86.70
2019-01-13T06:25:09.536Z,86.30
2019-01-13T06:27:37.943Z,86.30
2019-01-13T06:30:09.795Z,86.60
2019-01-13T06:32:38.155Z,86.60
2019-01-13T06:35:07.029Z,86.70
2019-01-13T06:37:35.502Z,86.80
2019-01-13T06:40:05.869Z,86.80
2019-01-13T06:42:34.257Z,87.00
2019-01-13T06:45:02.839Z,87.10
2019-01-13T06:47:31.316Z,87.00
2019-01-13T06:49:59.791Z,86.80
2019-01-13T06:52:28.360Z,86.60
2019-01-13T06:54:56.931Z,86.80
2019-01-13T06:57:25.441Z,86.60
2019-01-13T06:59:54.173Z,86.70
2019-01-13T07:02:22.539Z,87.10
2019-01-13T07:04:57.155Z,87.30
2019-01-13T07:07:22.985Z,87.10
2019-01-13T07:09:52.929Z,87.40
2019-01-13T07:12:21.459Z,87.10
2019-01-13T07:14:50.055Z,87.00
2019-01-13T07:17:18.494Z,87.30
2019-01-13T07:19:46.913Z,87.30
2019-01-13T07:22:16.009Z,87.00
2019-01-13T07:24:44.396Z,87.20
2019-01-13T07:27:12.796Z,87.60
2019-01-13T07:29:41.284Z,87.40
2019-01-13T07:32:10.887Z,87.30
2019-01-13T07:34:39.435Z,87.30
2019-01-13T07:37:07.829Z,87.10
2019-01-13T07:39:36.239Z,87.60
2019-01-13T07:42:04.607Z,87.10
2019-01-13T07:44:33.185Z,86.90
2019-01-13T07:47:01.856Z,86.90
2019-01-13T07:49:30.341Z,87.20
2019-01-13T07:51:58.746Z,87.40
2019-01-13T07:54:27.166Z,87.70
2019-01-13T07:57:00.155Z,87.90
2019-01-13T07:59:28.544Z,87.60
2019-01-13T08:01:59.636Z,87.70
2019-01-13T08:07:14.139Z,87.30
2019-01-13T08:09:49.742Z,87.50
2019-01-13T08:18:23.853Z,87.30
2019-01-13T08:20:58.524Z,87.30
2019-01-13T08:23:33.647Z,87.30
2019-01-13T08:26:02.147Z,87.10
2019-01-13T08:28:30.556Z,87.10
2019-01-13T08:30:59.232Z,87.20
2019-01-13T08:33:30.846Z,87.50
2019-01-13T08:35:59.482Z,87.70
2019-01-13T08:38:27.912Z,87.20
2019-01-13T08:40:56.340Z,87.40
2019-01-13T08:43:25.042Z,87.20
2019-01-13T08:45:53.455Z,87.10
2019-01-13T08:48:21.910Z,87.10
2019-01-13T08:50:54.695Z,87.20
2019-01-13T08:53:23.153Z,87.30
2019-01-13T08:55:51.606Z,87.10
2019-01-13T08:58:19.993Z,86.60
2019-01-13T09:00:48.670Z,86.70
2019-01-13T09:03:17.047Z,86.60
2019-01-13T09:05:45.579Z,86.50
2019-01-13T09:08:13.986Z,86.50
2019-01-13T09:10:42.384Z,86.30
2019-01-13T09:13:10.771Z,86.50
2019-01-13T09:15:39.275Z,86.50
2019-01-13T09:18:07.764Z,86.10
2019-01-13T09:20:36.296Z,86.50
2019-01-13T09:23:06.070Z,86.90
2019-01-13T09:25:34.509Z,87.10
2019-01-13T09:28:03.691Z,86.90
2019-01-13T09:30:35.536Z,86.90
2019-01-13T09:33:05.484Z,86.40
2019-01-13T09:35:35.202Z,86.50
2019-01-13T09:38:03.711Z,86.30
2019-01-13T09:40:38.140Z,85.90
2019-01-13T09:43:11.845Z,86.00
2019-01-13T09:45:40.028Z,86.00
2019-01-13T09:48:08.353Z,86.10
2019-01-13T09:50:36.884Z,85.80
2019-01-13T09:53:05.286Z,85.70
2019-01-13T09:56:10.719Z,85.70
2019-01-13T09:58:42.354Z,85.90
2019-01-13T10:01:10.752Z,86.20
2019-01-13T10:03:40.145Z,86.10
2019-01-13T10:06:08.884Z,86.00
2019-01-13T10:08:45.318Z,85.70
2019-01-13T10:11:17.777Z,85.50
2019-01-13T10:13:46.210Z,86.00
2019-01-13T10:16:17.919Z,86.10
2019-01-13T10:19:11.277Z,85.50
2019-01-13T10:21:31.036Z,85.50
2019-01-13T10:23:59.467Z,85.10
2019-01-13T10:26:31.860Z,84.60
2019-01-13T10:29:02.147Z,84.80
2019-01-13T10:31:33.071Z,84.80
2019-01-13T10:34:06.810Z,84.50
2019-01-13T10:36:36.495Z,84.60
2019-01-13T10:39:25.616Z,84.40
2019-01-13T10:41:52.117Z,84.00
2019-01-13T10:44:20.909Z,84.50
2019-01-13T10:46:49.450Z,84.30
2019-01-13T10:49:22.603Z,84.10
2019-01-13T10:51:53.800Z,83.50
2019-01-13T10:54:22.495Z,83.80
2019-01-13T10:57:06.630Z,83.80
2019-01-13T10:59:26.509Z,84.00
2019-01-13T11:02:12.417Z,83.60
2019-01-13T11:05:05.525Z,83.50
2019-01-13T11:07:31.648Z,84.10
2019-01-13T11:13:01.245Z,85.30
2019-01-13T11:15:43.230Z,85.20
2019-01-13T11:18:17.173Z,84.70
2019-01-13T11:20:49.628Z,85.00
2019-01-13T11:29:07.466Z,86.60
2019-01-13T11:31:36.183Z,87.10
2019-01-13T11:34:18.650Z,87.30
2019-01-13T11:37:04.054Z,87.20
2019-01-13T11:39:32.398Z,86.90
2019-01-13T11:42:00.828Z,86.90
2019-01-13T11:44:29.255Z,87.30
2019-01-13T11:47:06.759Z,87.30
2019-01-13T11:49:35.174Z,87.30
2019-01-13T11:52:03.701Z,88.00
2019-01-13T11:54:32.131Z,87.90
2019-01-13T11:57:00.568Z,88.60
2019-01-13T11:59:28.952Z,89.00
2019-01-13T12:01:57.362Z,89.20
2019-01-13T12:04:25.826Z,89.70
2019-01-13T12:06:54.223Z,90.40
2019-01-13T12:09:22.641Z,90.50
2019-01-13T12:11:51.007Z,90.80
2019-01-13T12:14:19.385Z,90.70
2019-01-13T12:16:47.828Z,90.50
2019-01-13T12:19:16.211Z,90.80
2019-01-13T12:21:44.589Z,90.90
2019-01-13T12:24:13.000Z,91.00
2019-01-13T12:26:41.525Z,91.00
2019-01-13T12:29:10.151Z,91.20
2019-01-13T12:31:38.674Z,91.40
2019-01-13T12:34:07.187Z,91.20
2019-01-13T12:36:35.639Z,91.10
2019-01-13T12:39:10.230Z,91.30
2019-01-13T12:41:38.840Z,91.30
2019-01-13T12:44:17.350Z,91.40
2019-01-13T12:46:44.962Z,91.40
2019-01-13T12:49:17.691Z,91.70
2019-01-13T12:51:53.743Z,91.50
2019-01-13T12:54:21.694Z,91.70
2019-01-13T12:56:52.125Z,91.70
2019-01-13T12:59:20.616Z,91.50
2019-01-13T13:01:49.289Z,91.60
2019-01-13T13:04:21.212Z,91.30
2019-01-13T13:06:49.729Z,91.60
2019-01-13T13:09:18.353Z,91.50
2019-01-13T13:11:47.339Z,91.30
2019-01-13T13:14:15.998Z,91.40
2019-01-13T13:16:47.219Z,91.30
2019-01-13T13:19:15.856Z,91.50
2019-01-13T13:21:44.538Z,90.70
2019-01-13T13:24:12.978Z,91.10
2019-01-13T13:26:43.440Z,91.10
2019-01-13T13:29:13.080Z,91.10
2019-01-13T13:31:42.592Z,91.00
2019-01-13T13:34:19.159Z,90.80
2019-01-13T13:36:47.698Z,90.50
2019-01-13T13:39:16.422Z,90.60
2019-01-13T13:41:49.576Z,90.10
2019-01-13T13:47:17.222Z,90.10
2019-01-13T13:49:51.714Z,90.20
2019-01-13T13:52:38.559Z,90.20
2019-01-13T13:55:14.222Z,90.30
2019-01-13T13:57:47.130Z,90.20
2019-01-13T14:00:21.807Z,89.50
2019-01-13T14:02:53.871Z,89.60
2019-01-13T14:05:32.735Z,89.30
2019-01-13T14:07:57.340Z,89.80
2019-01-13T14:10:38.203Z,89.70
2019-01-13T14:13:08.115Z,90.00
2019-01-13T14:15:38.297Z,89.80
2019-01-13T14:18:06.705Z,89.20
2019-01-13T14:23:38.881Z,89.10
2019-01-13T14:26:07.431Z,88.30
2019-01-13T14:28:35.909Z,88.40
2019-01-13T14:31:04.530Z,88.50
2019-01-13T14:33:32.992Z,89.80
2019-01-13T14:36:01.393Z,87.70
2019-01-13T14:38:29.803Z,88.60
2019-01-13T14:40:58.215Z,87.50
2019-01-13T14:43:26.645Z,87.70
2019-01-13T14:45:55.009Z,88.90
2019-01-13T14:48:23.550Z,87.60
2019-01-13T14:50:51.904Z,87.90
2019-01-13T14:53:20.316Z,87.80
2019-01-13T14:55:48.758Z,87.50
2019-01-13T14:58:17.149Z,87.00
2019-01-13T15:00:45.723Z,87.20
2019-01-13T15:03:15.704Z,87.70
2019-01-13T15:05:46.400Z,87.60
2019-01-13T15:08:17.091Z,87.30
2019-01-13T15:10:45.698Z,87.30
2019-01-13T15:13:14.201Z,87.20
2019-01-13T15:15:42.620Z,87.70
2019-01-13T15:18:11.528Z,87.70
2019-01-13T15:20:40.657Z,87.30
2019-01-13T15:23:09.531Z,87.40
2019-01-13T15:25:37.903Z,87.30
2019-01-13T15:28:06.422Z,87.20
2019-01-13T15:30:35.197Z,87.50
2019-01-13T15:33:03.663Z,87.70
2019-01-13T15:35:32.124Z,88.10
2019-01-13T15:38:00.647Z,88.40
2019-01-13T15:40:29.063Z,88.30
2019-01-13T15:42:57.615Z,87.80
2019-01-13T15:45:27.745Z,87.70
2019-01-13T15:47:56.238Z,87.20
2019-01-13T15:50:26.448Z,87.30
2019-01-13T15:53:03.271Z,87.40
2019-01-13T15:55:37.540Z,87.00
2019-01-13T15:58:16.130Z,86.60
2019-01-13T16:01:06.837Z,86.90
2019-01-13T16:03:35.735Z,86.60
2019-01-13T16:06:13.318Z,86.80
2019-01-13T16:08:40.743Z,87.20
2019-01-13T16:11:09.226Z,87.70
2019-01-13T16:13:37.654Z,87.80
2019-01-13T16:16:06.078Z,87.80
2019-01-13T16:18:39.052Z,87.70
2019-01-13T16:21:09.663Z,87.60
2019-01-13T16:23:38.454Z,87.90
2019-01-13T16:26:07.048Z,87.90
2019-01-13T16:28:38.357Z,87.90
2019-01-13T16:31:13.661Z,87.60
2019-01-13T16:33:41.291Z,87.30
2019-01-13T16:36:09.783Z,87.40
2019-01-13T16:38:38.553Z,87.60
2019-01-13T16:41:07.045Z,87.10
2019-01-13T16:43:35.527Z,87.10
2019-01-13T16:46:03.904Z,87.40
2019-01-13T16:48:41.517Z,87.80
2019-01-13T16:51:09.933Z,87.80
2019-01-13T16:53:38.408Z,87.90
2019-01-13T16:56:14.888Z,87.70
2019-01-13T16:58:49.535Z,87.90
2019-01-13T17:01:19.742Z,88.00
2019-01-13T17:03:48.136Z,88.00
2019-01-13T17:06:18.368Z,88.20
2019-01-13T17:08:57.388Z,88.00
2019-01-13T17:11:26.040Z,88.00
2019-01-13T17:13:55.197Z,87.50
2019-01-13T17:16:27.035Z,87.30
2019-01-13T17:25:32.259Z,87.80
2019-01-13T17:28:00.640Z,88.50
2019-01-13T17:30:38.064Z,89.00
2019-01-13T17:33:07.512Z,89.00
2019-01-13T17:35:36.017Z,89.00
2019-01-13T17:38:04.478Z,89.60
2019-01-13T17:40:32.904Z,89.70
2019-01-13T17:43:01.319Z,89.90
2019-01-13T17:45:30.681Z,90.10
2019-01-13T17:47:59.271Z,90.10
2019-01-13T17:50:28.358Z,90.40
2019-01-13T17:53:02.326Z,90.60
2019-01-13T17:55:30.912Z,90.50
2019-01-13T17:58:01.081Z,90.50
2019-01-13T18:00:38.722Z,90.50
2019-01-13T18:03:10.268Z,90.30
2019-01-13T18:05:38.732Z,90.10
2019-01-13T18:08:07.185Z,90.00
2019-01-13T18:10:35.634Z,90.20
2019-01-13T18:13:04.061Z,90.40
2019-01-13T18:15:32.493Z,90.30
2019-01-13T18:18:00.893Z,90.20
2019-01-13T18:20:30.051Z,90.10
2019-01-13T18:22:58.570Z,90.00
2019-01-13T18:25:27.072Z,90.00
2019-01-13T18:27:58.392Z,89.90
2019-01-13T18:30:55.249Z,89.60
2019-01-13T18:36:19.756Z,89.00
2019-01-13T18:38:56.854Z,88.80
2019-01-13T18:41:27.366Z,88.80
2019-01-13T18:44:00.836Z,88.40
2019-01-13T18:46:30.632Z,88.00
2019-01-13T18:49:01.718Z,87.40
2019-01-13T18:51:35.704Z,87.40
2019-01-13T18:54:23.251Z,87.10
2019-01-13T18:56:52.691Z,87.00
2019-01-13T18:59:21.170Z,87.20
2019-01-13T19:01:49.571Z,87.10
2019-01-13T19:04:18.088Z,86.70
2019-01-13T19:06:46.718Z,87.10
2019-01-13T19:09:17.031Z,86.80
2019-01-13T19:11:45.492Z,86.30
2019-01-13T19:14:21.491Z,86.70
2019-01-13T19:16:58.270Z,86.40
2019-01-13T19:19:24.360Z,86.50
2019-01-13T19:21:52.816Z,86.40
2019-01-13T19:24:24.110Z,85.80
2019-01-13T19:26:55.390Z,86.30
2019-01-13T19:29:27.084Z,87.30
2019-01-13T19:31:56.585Z,86.60
2019-01-13T19:34:25.257Z,86.70
2019-01-13T19:36:55.589Z,87.20
2019-01-13T19:39:24.065Z,87.10
2019-01-13T19:41:52.701Z,86.60
2019-01-13T19:44:23.029Z,86.50
2019-01-13T19:46:51.811Z,85.90
2019-01-13T19:49:20.433Z,86.70
2019-01-13T19:51:48.926Z,87.10
2019-01-13T19:54:17.489Z,87.00
2019-01-13T19:56:47.253Z,87.10
2019-01-13T19:59:15.791Z,88.60
2019-01-13T20:01:44.292Z,89.80
2019-01-13T20:04:15.846Z,89.80
2019-01-13T20:06:44.473Z,89.50
2019-01-13T20:09:13.591Z,89.70
2019-01-13T20:11:47.811Z,89.90
2019-01-13T20:14:19.074Z,89.90
2019-01-13T20:16:50.952Z,88.70
2019-01-13T20:19:20.914Z,87.50
2019-01-13T20:21:49.599Z,87.00
2019-01-13T20:24:18.114Z,87.10
2019-01-13T20:26:46.708Z,86.80
2019-01-13T20:29:16.806Z,87.50
2019-01-13T20:31:45.317Z,87.30
2019-01-13T20:34:13.745Z,87.60
2019-01-13T20:36:59.427Z,87.40
2019-01-13T20:39:27.960Z,87.50
2019-01-13T20:41:56.387Z,87.50
2019-01-13T20:44:24.964Z,87.40
2019-01-13T20:46:55.195Z,87.40
2019-01-13T20:49:23.696Z,87.90
2019-01-13T20:51:52.193Z,88.40
2019-01-13T20:54:20.805Z,88.10
2019-01-13T20:56:52.140Z,88.20
2019-01-13T20:59:23.163Z,87.40
2019-01-13T21:01:51.775Z,87.80
2019-01-13T21:04:21.757Z,88.30
2019-01-13T21:06:50.095Z,87.80
2019-01-13T21:09:18.702Z,87.00
2019-01-13T21:11:47.209Z,86.50
2019-01-13T21:14:15.665Z,86.40
2019-01-13T21:16:44.071Z,84.90
2019-01-13T21:19:12.684Z,85.00
2019-01-13T21:21:41.378Z,85.10
2019-01-13T21:24:10.102Z,84.90
2019-01-13T21:26:38.583Z,85.20
2019-01-13T21:29:08.749Z,84.90
2019-01-13T21:31:37.201Z,84.10
2019-01-13T21:34:05.617Z,84.00
2019-01-13T21:36:43.223Z,84.10
2019-01-13T21:39:07.949Z,84.30
2019-01-13T21:41:36.362Z,84.50
2019-01-13T21:44:04.836Z,84.20
2019-01-13T21:46:33.316Z,83.50
2019-01-13T21:49:01.659Z,83.30
2019-01-13T21:51:30.065Z,82.90
2019-01-13T21:53:58.551Z,82.30
2019-01-13T21:56:26.943Z,81.30
2019-01-13T21:58:55.329Z,81.90
2019-01-13T22:01:23.776Z,81.20
2019-01-13T22:03:52.185Z,81.80
2019-01-13T22:06:20.565Z,80.80
2019-01-13T22:08:56.058Z,79.80
2019-01-13T22:11:20.279Z,79.90
2019-01-13T22:13:48.646Z,79.50
2019-01-13T22:16:17.151Z,79.20
2019-01-13T22:18:45.869Z,79.90
2019-01-13T22:21:14.241Z,79.60
2019-01-13T22:23:42.676Z,79.40
2019-01-13T22:26:11.077Z,79.00
2019-01-13T22:28:39.443Z,79.10
2019-01-13T22:31:09.517Z,79.20
2019-01-13T22:33:37.876Z,79.20
2019-01-13T22:36:06.299Z,79.10
2019-01-13T22:38:34.703Z,78.70
2019-01-13T22:41:03.095Z,78.50
2019-01-13T22:43:31.500Z,78.60
2019-01-13T22:45:59.985Z,77.50
2019-01-13T22:48:28.403Z,77.80
2019-01-13T22:50:56.803Z,77.10
2019-01-13T22:53:25.263Z,76.10
2019-01-13T22:55:53.739Z,75.70
2019-01-13T22:58:22.120Z,75.50
2019-01-13T23:00:58.136Z,75.20
2019-01-13T23:03:26.514Z,75.00
2019-01-13T23:05:55.776Z,75.40
2019-01-13T23:08:24.357Z,75.40
2019-01-13T23:10:52.759Z,74.70
2019-01-13T23:13:21.141Z,75.00
2019-01-13T23:15:49.723Z,75.00
2019-01-13T23:18:18.156Z,74.60
2019-01-13T23:20:49.690Z,74.70
2019-01-13T23:23:18.087Z,75.00
2019-01-13T23:25:46.837Z,74.90
2019-01-13T23:28:15.337Z,74.70
2019-01-13T23:30:43.974Z,74.80
2019-01-13T23:33:13.814Z,74.60
2019-01-13T23:35:42.399Z,74.90
2019-01-13T23:38:15.179Z,73.90
2019-01-13T23:40:43.681Z,74.90
2019-01-13T23:43:20.788Z,74.80
2019-01-13T23:45:51.582Z,75.00
2019-01-13T23:51:24.751Z,74.30
2019-01-13T23:53:55.330Z,75.20
2019-01-13T23:56:24.186Z,74.90
2019-01-13T23:58:58.737Z,74.00
